sensor_id;sensor_type;location;lat;lon;timestamp;P1;durP1;ratioP1;P2;durP2;ratioP2
66607;SDS011;53462;39.616;8.824;2022-07-22T00:00:34;7.65;;;5.32;;
66607;SDS011;53462;39.616;8.824;2022-07-22T00:03:00;7.10;;;4.65;;
66607;SDS011;53462;39.616;8.824;2022-07-22T00:05:26;7.15;;;4.65;;
66607;SDS011;53462;39.616;8.824;2022-07-22T00:07:52;9.63;;;4.45;;
66607;SDS011;53462;39.616;8.824;2022-07-22T00:10:18;6.88;;;4.18;;
66607;SDS011;53462;39.616;8.824;2022-07-22T00:12:44;7.55;;;4.65;;
66607;SDS011;53462;39.616;8.824;2022-07-22T00:15:10;6.43;;;4.70;;
66607;SDS011;53462;39.616;8.824;2022-07-22T00:17:36;8.05;;;5.05;;
66607;SDS011;53462;39.616;8.824;2022-07-22T00:20:02;6.75;;;5.40;;
66607;SDS011;53462;39.616;8.824;2022-07-22T00:22:30;9.27;;;4.70;;
66607;SDS011;53462;39.616;8.824;2022-07-22T00:24:55;6.07;;;4.60;;
66607;SDS011;53462;39.616;8.824;2022-07-22T00:27:21;7.75;;;4.80;;
66607;SDS011;53462;39.616;8.824;2022-07-22T00:29:47;11.35;;;4.47;;
66607;SDS011;53462;39.616;8.824;2022-07-22T00:32:13;6.20;;;4.18;;
66607;SDS011;53462;39.616;8.824;2022-07-22T00:34:39;7.90;;;3.90;;
66607;SDS011;53462;39.616;8.824;2022-07-22T00:37:05;5.80;;;3.95;;
66607;SDS011;53462;39.616;8.824;2022-07-22T00:39:31;7.03;;;4.05;;
66607;SDS011;53462;39.616;8.824;2022-07-22T00:41:58;6.60;;;3.70;;
66607;SDS011;53462;39.616;8.824;2022-07-22T00:44:25;9.35;;;4.15;;
66607;SDS011;53462;39.616;8.824;2022-07-22T00:46:51;8.75;;;4.30;;
66607;SDS011;53462;39.616;8.824;2022-07-22T00:49:17;7.10;;;4.88;;
66607;SDS011;53462;39.616;8.824;2022-07-22T00:51:43;6.03;;;4.45;;
66607;SDS011;53462;39.616;8.824;2022-07-22T00:54:11;8.45;;;5.10;;
66607;SDS011;53462;39.616;8.824;2022-07-22T00:56:37;5.93;;;4.78;;
66607;SDS011;53462;39.616;8.824;2022-07-22T00:59:04;5.82;;;4.50;;
66607;SDS011;53462;39.616;8.824;2022-07-22T01:01:32;5.47;;;4.85;;
66607;SDS011;53462;39.616;8.824;2022-07-22T01:03:59;6.93;;;4.60;;
66607;SDS011;53462;39.616;8.824;2022-07-22T01:06:25;6.00;;;4.80;;
66607;SDS011;53462;39.616;8.824;2022-07-22T01:08:51;7.43;;;4.63;;
66607;SDS011;53462;39.616;8.824;2022-07-22T01:11:18;6.95;;;4.30;;
66607;SDS011;53462;39.616;8.824;2022-07-22T01:13:45;12.23;;;4.65;;
66607;SDS011;53462;39.616;8.824;2022-07-22T01:16:12;8.43;;;4.75;;
66607;SDS011;53462;39.616;8.824;2022-07-22T01:18:39;5.80;;;4.72;;
66607;SDS011;53462;39.616;8.824;2022-07-22T01:21:07;6.97;;;4.55;;
66607;SDS011;53462;39.616;8.824;2022-07-22T01:23:34;9.25;;;4.93;;
66607;SDS011;53462;39.616;8.824;2022-07-22T01:26:01;6.63;;;4.70;;
66607;SDS011;53462;39.616;8.824;2022-07-22T01:28:27;7.55;;;4.43;;
66607;SDS011;53462;39.616;8.824;2022-07-22T01:30:54;7.35;;;4.75;;
66607;SDS011;53462;39.616;8.824;2022-07-22T01:33:20;7.55;;;4.55;;
66607;SDS011;53462;39.616;8.824;2022-07-22T01:35:46;6.43;;;4.38;;
66607;SDS011;53462;39.616;8.824;2022-07-22T01:38:13;5.78;;;4.40;;
66607;SDS011;53462;39.616;8.824;2022-07-22T01:40:40;4.90;;;4.40;;
66607;SDS011;53462;39.616;8.824;2022-07-22T01:43:08;9.32;;;4.55;;
66607;SDS011;53462;39.616;8.824;2022-07-22T01:45:34;6.05;;;4.82;;
66607;SDS011;53462;39.616;8.824;2022-07-22T01:48:01;9.07;;;4.63;;
66607;SDS011;53462;39.616;8.824;2022-07-22T01:50:28;5.13;;;4.60;;
66607;SDS011;53462;39.616;8.824;2022-07-22T01:52:54;8.13;;;4.93;;
66607;SDS011;53462;39.616;8.824;2022-07-22T01:55:21;5.78;;;4.82;;
66607;SDS011;53462;39.616;8.824;2022-07-22T01:57:47;7.57;;;4.55;;
66607;SDS011;53462;39.616;8.824;2022-07-22T02:00:24;5.72;;;4.10;;
66607;SDS011;53462;39.616;8.824;2022-07-22T02:02:50;7.38;;;5.10;;
66607;SDS011;53462;39.616;8.824;2022-07-22T02:05:16;7.15;;;4.13;;
66607;SDS011;53462;39.616;8.824;2022-07-22T02:07:42;6.13;;;4.18;;
66607;SDS011;53462;39.616;8.824;2022-07-22T02:10:08;7.05;;;4.10;;
66607;SDS011;53462;39.616;8.824;2022-07-22T02:12:35;5.28;;;4.43;;
66607;SDS011;53462;39.616;8.824;2022-07-22T02:15:02;7.18;;;4.22;;
66607;SDS011;53462;39.616;8.824;2022-07-22T02:17:29;6.93;;;4.20;;
66607;SDS011;53462;39.616;8.824;2022-07-22T02:19:55;5.55;;;4.10;;
66607;SDS011;53462;39.616;8.824;2022-07-22T02:22:21;4.78;;;3.92;;
66607;SDS011;53462;39.616;8.824;2022-07-22T02:24:47;5.20;;;4.35;;
66607;SDS011;53462;39.616;8.824;2022-07-22T02:27:13;5.82;;;4.50;;
66607;SDS011;53462;39.616;8.824;2022-07-22T02:29:40;7.13;;;4.28;;
66607;SDS011;53462;39.616;8.824;2022-07-22T02:32:06;7.70;;;4.57;;
66607;SDS011;53462;39.616;8.824;2022-07-22T02:34:33;7.03;;;4.65;;
66607;SDS011;53462;39.616;8.824;2022-07-22T02:36:59;6.75;;;4.82;;
66607;SDS011;53462;39.616;8.824;2022-07-22T02:39:25;5.80;;;4.70;;
66607;SDS011;53462;39.616;8.824;2022-07-22T02:41:51;5.10;;;4.25;;
66607;SDS011;53462;39.616;8.824;2022-07-22T02:44:17;8.68;;;4.85;;
66607;SDS011;53462;39.616;8.824;2022-07-22T02:46:43;8.73;;;4.80;;
66607;SDS011;53462;39.616;8.824;2022-07-22T02:49:14;7.93;;;5.00;;
66607;SDS011;53462;39.616;8.824;2022-07-22T02:51:40;6.93;;;5.32;;
66607;SDS011;53462;39.616;8.824;2022-07-22T02:54:06;6.90;;;5.05;;
66607;SDS011;53462;39.616;8.824;2022-07-22T02:56:32;7.63;;;4.85;;
66607;SDS011;53462;39.616;8.824;2022-07-22T02:58:58;7.05;;;5.30;;
66607;SDS011;53462;39.616;8.824;2022-07-22T03:01:24;11.10;;;5.60;;
66607;SDS011;53462;39.616;8.824;2022-07-22T03:03:54;9.02;;;5.50;;
66607;SDS011;53462;39.616;8.824;2022-07-22T03:06:21;6.75;;;5.28;;
66607;SDS011;53462;39.616;8.824;2022-07-22T03:08:59;7.75;;;5.32;;
66607;SDS011;53462;39.616;8.824;2022-07-22T03:11:25;6.43;;;5.18;;
66607;SDS011;53462;39.616;8.824;2022-07-22T03:13:51;7.25;;;5.07;;
66607;SDS011;53462;39.616;8.824;2022-07-22T03:16:18;9.95;;;5.45;;
66607;SDS011;53462;39.616;8.824;2022-07-22T03:18:45;8.45;;;5.10;;
66607;SDS011;53462;39.616;8.824;2022-07-22T03:21:11;6.18;;;5.05;;
66607;SDS011;53462;39.616;8.824;2022-07-22T03:23:37;7.00;;;4.90;;
66607;SDS011;53462;39.616;8.824;2022-07-22T03:26:03;6.38;;;5.03;;
66607;SDS011;53462;39.616;8.824;2022-07-22T03:28:29;8.70;;;5.05;;
66607;SDS011;53462;39.616;8.824;2022-07-22T03:30:55;6.88;;;5.05;;
66607;SDS011;53462;39.616;8.824;2022-07-22T03:33:21;7.20;;;5.05;;
66607;SDS011;53462;39.616;8.824;2022-07-22T03:35:47;6.55;;;5.00;;
66607;SDS011;53462;39.616;8.824;2022-07-22T03:38:13;8.45;;;5.32;;
66607;SDS011;53462;39.616;8.824;2022-07-22T03:40:39;6.43;;;5.00;;
66607;SDS011;53462;39.616;8.824;2022-07-22T03:43:06;6.35;;;5.50;;
66607;SDS011;53462;39.616;8.824;2022-07-22T03:45:32;7.80;;;5.13;;
66607;SDS011;53462;39.616;8.824;2022-07-22T03:47:58;6.35;;;5.10;;
66607;SDS011;53462;39.616;8.824;2022-07-22T03:50:27;8.20;;;5.90;;
66607;SDS011;53462;39.616;8.824;2022-07-22T03:52:54;8.48;;;5.22;;
66607;SDS011;53462;39.616;8.824;2022-07-22T03:55:20;7.85;;;5.22;;
66607;SDS011;53462;39.616;8.824;2022-07-22T03:57:50;8.40;;;5.40;;
66607;SDS011;53462;39.616;8.824;2022-07-22T04:00:22;8.02;;;5.50;;
66607;SDS011;53462;39.616;8.824;2022-07-22T04:02:48;7.32;;;5.13;;
66607;SDS011;53462;39.616;8.824;2022-07-22T04:05:37;6.75;;;5.22;;
66607;SDS011;53462;39.616;8.824;2022-07-22T04:08:03;7.38;;;5.10;;
66607;SDS011;53462;39.616;8.824;2022-07-22T04:10:29;7.68;;;5.43;;
66607;SDS011;53462;39.616;8.824;2022-07-22T04:12:56;7.20;;;5.28;;
66607;SDS011;53462;39.616;8.824;2022-07-22T04:15:41;6.53;;;4.78;;
66607;SDS011;53462;39.616;8.824;2022-07-22T04:18:07;6.53;;;4.97;;
66607;SDS011;53462;39.616;8.824;2022-07-22T04:20:33;5.80;;;5.00;;
66607;SDS011;53462;39.616;8.824;2022-07-22T04:23:28;9.05;;;5.40;;
66607;SDS011;53462;39.616;8.824;2022-07-22T04:26:06;7.43;;;4.95;;
66607;SDS011;53462;39.616;8.824;2022-07-22T04:28:33;6.03;;;4.80;;
66607;SDS011;53462;39.616;8.824;2022-07-22T04:31:01;6.55;;;4.97;;
66607;SDS011;53462;39.616;8.824;2022-07-22T04:33:28;10.55;;;4.72;;
66607;SDS011;53462;39.616;8.824;2022-07-22T04:35:54;6.88;;;4.93;;
66607;SDS011;53462;39.616;8.824;2022-07-22T04:38:20;7.10;;;5.00;;
66607;SDS011;53462;39.616;8.824;2022-07-22T04:40:57;11.75;;;5.13;;
66607;SDS011;53462;39.616;8.824;2022-07-22T04:43:24;12.85;;;5.70;;
66607;SDS011;53462;39.616;8.824;2022-07-22T04:45:50;7.57;;;4.55;;
66607;SDS011;53462;39.616;8.824;2022-07-22T04:48:17;8.48;;;4.95;;
66607;SDS011;53462;39.616;8.824;2022-07-22T04:50:43;5.82;;;4.93;;
66607;SDS011;53462;39.616;8.824;2022-07-22T04:53:10;7.00;;;4.88;;
66607;SDS011;53462;39.616;8.824;2022-07-22T04:55:36;7.15;;;4.40;;
66607;SDS011;53462;39.616;8.824;2022-07-22T04:58:02;5.60;;;4.80;;
66607;SDS011;53462;39.616;8.824;2022-07-22T05:00:28;8.02;;;4.40;;
66607;SDS011;53462;39.616;8.824;2022-07-22T05:02:55;6.47;;;4.82;;
66607;SDS011;53462;39.616;8.824;2022-07-22T05:05:21;10.77;;;4.88;;
66607;SDS011;53462;39.616;8.824;2022-07-22T05:07:47;11.52;;;4.32;;
66607;SDS011;53462;39.616;8.824;2022-07-22T05:10:13;16.85;;;4.90;;
66607;SDS011;53462;39.616;8.824;2022-07-22T05:12:40;10.80;;;4.70;;
66607;SDS011;53462;39.616;8.824;2022-07-22T05:15:06;4.53;;;3.70;;
66607;SDS011;53462;39.616;8.824;2022-07-22T05:17:32;7.70;;;3.85;;
66607;SDS011;53462;39.616;8.824;2022-07-22T05:20:16;7.85;;;3.58;;
66607;SDS011;53462;39.616;8.824;2022-07-22T05:22:42;10.23;;;4.10;;
66607;SDS011;53462;39.616;8.824;2022-07-22T05:25:14;7.88;;;4.10;;
66607;SDS011;53462;39.616;8.824;2022-07-22T05:27:48;6.63;;;3.97;;
66607;SDS011;53462;39.616;8.824;2022-07-22T05:30:17;7.38;;;3.70;;
66607;SDS011;53462;39.616;8.824;2022-07-22T05:32:43;6.13;;;3.80;;
66607;SDS011;53462;39.616;8.824;2022-07-22T05:35:11;8.07;;;3.83;;
66607;SDS011;53462;39.616;8.824;2022-07-22T05:37:37;6.93;;;3.40;;
66607;SDS011;53462;39.616;8.824;2022-07-22T05:40:03;4.75;;;3.40;;
66607;SDS011;53462;39.616;8.824;2022-07-22T05:42:30;5.50;;;3.38;;
66607;SDS011;53462;39.616;8.824;2022-07-22T05:44:56;5.38;;;3.65;;
66607;SDS011;53462;39.616;8.824;2022-07-22T05:47:22;5.72;;;3.60;;
66607;SDS011;53462;39.616;8.824;2022-07-22T05:49:48;7.18;;;3.88;;
66607;SDS011;53462;39.616;8.824;2022-07-22T05:52:14;7.15;;;4.70;;
66607;SDS011;53462;39.616;8.824;2022-07-22T05:54:41;11.38;;;7.68;;
66607;SDS011;53462;39.616;8.824;2022-07-22T05:57:07;6.03;;;4.47;;
66607;SDS011;53462;39.616;8.824;2022-07-22T05:59:36;10.77;;;6.60;;
66607;SDS011;53462;39.616;8.824;2022-07-22T06:02:02;8.57;;;5.10;;
66607;SDS011;53462;39.616;8.824;2022-07-22T06:04:40;14.32;;;4.57;;
66607;SDS011;53462;39.616;8.824;2022-07-22T06:07:07;6.60;;;3.97;;
66607;SDS011;53462;39.616;8.824;2022-07-22T06:09:34;6.00;;;4.35;;
66607;SDS011;53462;39.616;8.824;2022-07-22T06:11:59;5.63;;;4.10;;
66607;SDS011;53462;39.616;8.824;2022-07-22T06:14:26;7.57;;;5.30;;
66607;SDS011;53462;39.616;8.824;2022-07-22T06:16:52;12.00;;;5.07;;
66607;SDS011;53462;39.616;8.824;2022-07-22T06:19:17;10.38;;;7.32;;
66607;SDS011;53462;39.616;8.824;2022-07-22T06:21:43;10.45;;;4.43;;
66607;SDS011;53462;39.616;8.824;2022-07-22T06:24:12;5.38;;;3.80;;
66607;SDS011;53462;39.616;8.824;2022-07-22T06:26:38;8.00;;;3.72;;
66607;SDS011;53462;39.616;8.824;2022-07-22T06:29:03;5.57;;;3.47;;
66607;SDS011;53462;39.616;8.824;2022-07-22T06:31:29;5.47;;;3.30;;
66607;SDS011;53462;39.616;8.824;2022-07-22T06:33:55;7.47;;;3.13;;
66607;SDS011;53462;39.616;8.824;2022-07-22T06:36:28;8.48;;;3.42;;
66607;SDS011;53462;39.616;8.824;2022-07-22T06:38:54;9.98;;;3.75;;
66607;SDS011;53462;39.616;8.824;2022-07-22T06:41:19;7.97;;;3.00;;
66607;SDS011;53462;39.616;8.824;2022-07-22T06:44:06;7.57;;;3.35;;
66607;SDS011;53462;39.616;8.824;2022-07-22T06:46:44;14.07;;;3.97;;
66607;SDS011;53462;39.616;8.824;2022-07-22T06:49:10;7.47;;;3.60;;
66607;SDS011;53462;39.616;8.824;2022-07-22T06:51:36;9.65;;;3.60;;
66607;SDS011;53462;39.616;8.824;2022-07-22T06:54:02;6.95;;;3.30;;
66607;SDS011;53462;39.616;8.824;2022-07-22T06:56:28;6.82;;;3.50;;
66607;SDS011;53462;39.616;8.824;2022-07-22T06:58:54;7.25;;;3.20;;
66607;SDS011;53462;39.616;8.824;2022-07-22T07:01:21;10.23;;;3.22;;
66607;SDS011;53462;39.616;8.824;2022-07-22T07:03:50;5.05;;;3.20;;
66607;SDS011;53462;39.616;8.824;2022-07-22T07:06:16;9.80;;;4.78;;
66607;SDS011;53462;39.616;8.824;2022-07-22T07:09:05;11.50;;;4.63;;
66607;SDS011;53462;39.616;8.824;2022-07-22T07:11:33;6.90;;;4.07;;
66607;SDS011;53462;39.616;8.824;2022-07-22T07:14:03;12.85;;;4.65;;
66607;SDS011;53462;39.616;8.824;2022-07-22T07:16:29;5.88;;;3.80;;
66607;SDS011;53462;39.616;8.824;2022-07-22T07:18:55;6.28;;;3.60;;
66607;SDS011;53462;39.616;8.824;2022-07-22T07:21:21;8.57;;;3.22;;
66607;SDS011;53462;39.616;8.824;2022-07-22T07:23:47;5.63;;;2.92;;
66607;SDS011;53462;39.616;8.824;2022-07-22T07:26:13;3.33;;;2.88;;
66607;SDS011;53462;39.616;8.824;2022-07-22T07:28:39;5.97;;;3.33;;
66607;SDS011;53462;39.616;8.824;2022-07-22T07:31:28;8.45;;;3.28;;
66607;SDS011;53462;39.616;8.824;2022-07-22T07:33:56;7.22;;;3.30;;
66607;SDS011;53462;39.616;8.824;2022-07-22T07:36:22;6.03;;;2.80;;
66607;SDS011;53462;39.616;8.824;2022-07-22T07:38:49;3.72;;;2.65;;
66607;SDS011;53462;39.616;8.824;2022-07-22T07:41:16;6.82;;;2.95;;
66607;SDS011;53462;39.616;8.824;2022-07-22T07:43:46;5.22;;;2.63;;
66607;SDS011;53462;39.616;8.824;2022-07-22T07:46:12;5.20;;;3.30;;
66607;SDS011;53462;39.616;8.824;2022-07-22T07:48:38;10.68;;;3.47;;
66607;SDS011;53462;39.616;8.824;2022-07-22T07:51:04;7.47;;;3.17;;
66607;SDS011;53462;39.616;8.824;2022-07-22T07:53:31;9.68;;;3.33;;
66607;SDS011;53462;39.616;8.824;2022-07-22T07:55:57;10.02;;;3.25;;
66607;SDS011;53462;39.616;8.824;2022-07-22T07:58:23;5.80;;;3.20;;
66607;SDS011;53462;39.616;8.824;2022-07-22T08:00:50;3.67;;;2.88;;
66607;SDS011;53462;39.616;8.824;2022-07-22T08:03:16;4.30;;;2.60;;
66607;SDS011;53462;39.616;8.824;2022-07-22T08:05:42;9.52;;;2.70;;
66607;SDS011;53462;39.616;8.824;2022-07-22T08:08:13;4.25;;;2.45;;
66607;SDS011;53462;39.616;8.824;2022-07-22T08:10:39;3.78;;;2.28;;
66607;SDS011;53462;39.616;8.824;2022-07-22T08:13:24;5.60;;;2.30;;
66607;SDS011;53462;39.616;8.824;2022-07-22T08:16:10;5.32;;;2.40;;
66607;SDS011;53462;39.616;8.824;2022-07-22T08:18:36;5.10;;;2.50;;
66607;SDS011;53462;39.616;8.824;2022-07-22T08:21:03;7.32;;;2.65;;
66607;SDS011;53462;39.616;8.824;2022-07-22T08:24:01;7.85;;;2.72;;
66607;SDS011;53462;39.616;8.824;2022-07-22T08:26:27;7.00;;;2.70;;
66607;SDS011;53462;39.616;8.824;2022-07-22T08:28:53;4.60;;;2.50;;
66607;SDS011;53462;39.616;8.824;2022-07-22T08:31:20;6.78;;;2.80;;
66607;SDS011;53462;39.616;8.824;2022-07-22T08:33:47;4.15;;;2.60;;
66607;SDS011;53462;39.616;8.824;2022-07-22T08:36:13;4.90;;;2.80;;
66607;SDS011;53462;39.616;8.824;2022-07-22T08:38:39;5.40;;;2.80;;
66607;SDS011;53462;39.616;8.824;2022-07-22T08:41:05;6.00;;;2.90;;
66607;SDS011;53462;39.616;8.824;2022-07-22T08:43:34;10.70;;;3.17;;
66607;SDS011;53462;39.616;8.824;2022-07-22T08:46:05;5.22;;;2.80;;
66607;SDS011;53462;39.616;8.824;2022-07-22T08:48:49;4.95;;;3.05;;
66607;SDS011;53462;39.616;8.824;2022-07-22T08:51:23;4.32;;;2.70;;
66607;SDS011;53462;39.616;8.824;2022-07-22T08:54:12;14.05;;;3.10;;
66607;SDS011;53462;39.616;8.824;2022-07-22T08:56:38;4.72;;;2.55;;
66607;SDS011;53462;39.616;8.824;2022-07-22T08:59:04;4.22;;;2.67;;
66607;SDS011;53462;39.616;8.824;2022-07-22T09:01:32;6.00;;;2.72;;
66607;SDS011;53462;39.616;8.824;2022-07-22T09:03:58;10.68;;;2.83;;
66607;SDS011;53462;39.616;8.824;2022-07-22T09:06:29;5.40;;;2.88;;
66607;SDS011;53462;39.616;8.824;2022-07-22T09:09:03;3.28;;;2.58;;
66607;SDS011;53462;39.616;8.824;2022-07-22T09:12:03;3.95;;;2.90;;
66607;SDS011;53462;39.616;8.824;2022-07-22T09:14:59;7.07;;;2.70;;
66607;SDS011;53462;39.616;8.824;2022-07-22T09:18:03;6.68;;;2.85;;
66607;SDS011;53462;39.616;8.824;2022-07-22T09:20:38;5.47;;;2.72;;
66607;SDS011;53462;39.616;8.824;2022-07-22T09:23:24;3.35;;;2.45;;
66607;SDS011;53462;39.616;8.824;2022-07-22T09:25:52;7.20;;;2.88;;
66607;SDS011;53462;39.616;8.824;2022-07-22T09:28:37;4.53;;;2.40;;
66607;SDS011;53462;39.616;8.824;2022-07-22T09:31:29;5.70;;;2.70;;
66607;SDS011;53462;39.616;8.824;2022-07-22T09:34:26;5.15;;;2.50;;
66607;SDS011;53462;39.616;8.824;2022-07-22T09:36:54;4.97;;;2.60;;
66607;SDS011;53462;39.616;8.824;2022-07-22T09:39:28;7.13;;;2.40;;
66607;SDS011;53462;39.616;8.824;2022-07-22T09:42:00;4.97;;;2.83;;
66607;SDS011;53462;39.616;8.824;2022-07-22T09:44:33;4.80;;;2.60;;
66607;SDS011;53462;39.616;8.824;2022-07-22T09:47:17;5.45;;;2.70;;
66607;SDS011;53462;39.616;8.824;2022-07-22T09:50:30;3.17;;;2.42;;
66607;SDS011;53462;39.616;8.824;2022-07-22T09:53:18;6.47;;;2.78;;
66607;SDS011;53462;39.616;8.824;2022-07-22T09:55:55;6.00;;;2.50;;
66607;SDS011;53462;39.616;8.824;2022-07-22T09:58:21;5.80;;;3.00;;
66607;SDS011;53462;39.616;8.824;2022-07-22T10:00:48;3.95;;;2.75;;
66607;SDS011;53462;39.616;8.824;2022-07-22T10:03:27;3.80;;;2.70;;
66607;SDS011;53462;39.616;8.824;2022-07-22T10:05:55;4.47;;;2.90;;
66607;SDS011;53462;39.616;8.824;2022-07-22T10:08:23;3.30;;;2.88;;
66607;SDS011;53462;39.616;8.824;2022-07-22T10:10:52;3.65;;;2.78;;
66607;SDS011;53462;39.616;8.824;2022-07-22T10:13:23;3.75;;;2.75;;
66607;SDS011;53462;39.616;8.824;2022-07-22T10:15:49;2.90;;;2.60;;
66607;SDS011;53462;39.616;8.824;2022-07-22T10:18:18;6.53;;;3.00;;
66607;SDS011;53462;39.616;8.824;2022-07-22T10:20:47;3.35;;;3.05;;
66607;SDS011;53462;39.616;8.824;2022-07-22T10:23:13;8.85;;;3.10;;
66607;SDS011;53462;39.616;8.824;2022-07-22T10:25:52;4.05;;;2.72;;
66607;SDS011;53462;39.616;8.824;2022-07-22T10:28:27;4.60;;;2.90;;
66607;SDS011;53462;39.616;8.824;2022-07-22T10:33:44;3.80;;;3.10;;
66607;SDS011;53462;39.616;8.824;2022-07-22T10:36:12;3.58;;;2.90;;
66607;SDS011;53462;39.616;8.824;2022-07-22T10:38:40;7.97;;;3.00;;
66607;SDS011;53462;39.616;8.824;2022-07-22T10:41:36;3.15;;;2.85;;
66607;SDS011;53462;39.616;8.824;2022-07-22T10:44:03;3.30;;;2.78;;
66607;SDS011;53462;39.616;8.824;2022-07-22T10:47:03;3.78;;;3.05;;
66607;SDS011;53462;39.616;8.824;2022-07-22T10:49:24;6.43;;;3.20;;
66607;SDS011;53462;39.616;8.824;2022-07-22T10:54:32;3.33;;;2.70;;
66607;SDS011;53462;39.616;8.824;2022-07-22T10:56:59;5.68;;;3.33;;
66607;SDS011;53462;39.616;8.824;2022-07-22T10:59:25;4.28;;;2.63;;
66607;SDS011;53462;39.616;8.824;2022-07-22T11:01:52;5.20;;;2.80;;
66607;SDS011;53462;39.616;8.824;2022-07-22T11:04:24;5.55;;;3.10;;
66607;SDS011;53462;39.616;8.824;2022-07-22T11:06:51;3.70;;;3.00;;
66607;SDS011;53462;39.616;8.824;2022-07-22T11:09:19;7.40;;;2.90;;
66607;SDS011;53462;39.616;8.824;2022-07-22T11:11:51;4.53;;;2.90;;
66607;SDS011;53462;39.616;8.824;2022-07-22T11:14:20;5.75;;;3.30;;
66607;SDS011;53462;39.616;8.824;2022-07-22T11:16:48;6.35;;;2.95;;
66607;SDS011;53462;39.616;8.824;2022-07-22T11:19:18;5.32;;;3.15;;
66607;SDS011;53462;39.616;8.824;2022-07-22T11:21:48;6.80;;;3.10;;
66607;SDS011;53462;39.616;8.824;2022-07-22T11:24:15;6.22;;;3.25;;
66607;SDS011;53462;39.616;8.824;2022-07-22T11:26:42;4.22;;;2.90;;
66607;SDS011;53462;39.616;8.824;2022-07-22T11:29:10;6.78;;;3.17;;
66607;SDS011;53462;39.616;8.824;2022-07-22T11:31:59;5.88;;;2.90;;
66607;SDS011;53462;39.616;8.824;2022-07-22T11:34:26;5.35;;;2.92;;
66607;SDS011;53462;39.616;8.824;2022-07-22T11:36:53;5.10;;;3.22;;
66607;SDS011;53462;39.616;8.824;2022-07-22T11:39:22;7.93;;;3.28;;
66607;SDS011;53462;39.616;8.824;2022-07-22T11:41:52;4.38;;;3.35;;
66607;SDS011;53462;39.616;8.824;2022-07-22T11:44:20;3.55;;;3.00;;
66607;SDS011;53462;39.616;8.824;2022-07-22T11:46:48;11.02;;;3.00;;
66607;SDS011;53462;39.616;8.824;2022-07-22T11:49:16;3.75;;;2.92;;
66607;SDS011;53462;39.616;8.824;2022-07-22T11:51:44;5.30;;;3.13;;
66607;SDS011;53462;39.616;8.824;2022-07-22T11:54:10;5.43;;;2.80;;
66607;SDS011;53462;39.616;8.824;2022-07-22T11:56:36;4.45;;;2.92;;
66607;SDS011;53462;39.616;8.824;2022-07-22T11:59:03;4.00;;;2.50;;
66607;SDS011;53462;39.616;8.824;2022-07-22T12:01:31;3.78;;;2.85;;
66607;SDS011;53462;39.616;8.824;2022-07-22T12:04:04;3.65;;;2.67;;
66607;SDS011;53462;39.616;8.824;2022-07-22T12:06:33;3.80;;;2.70;;
66607;SDS011;53462;39.616;8.824;2022-07-22T12:09:14;4.40;;;2.33;;
66607;SDS011;53462;39.616;8.824;2022-07-22T12:11:47;7.18;;;2.50;;
66607;SDS011;53462;39.616;8.824;2022-07-22T12:14:15;3.88;;;2.47;;
66607;SDS011;53462;39.616;8.824;2022-07-22T12:16:43;3.05;;;2.72;;
66607;SDS011;53462;39.616;8.824;2022-07-22T12:19:19;3.65;;;2.25;;
66607;SDS011;53462;39.616;8.824;2022-07-22T12:21:52;3.90;;;2.45;;
66607;SDS011;53462;39.616;8.824;2022-07-22T12:24:26;3.28;;;2.33;;
66607;SDS011;53462;39.616;8.824;2022-07-22T12:26:57;3.63;;;2.40;;
66607;SDS011;53462;39.616;8.824;2022-07-22T12:29:41;2.72;;;2.10;;
66607;SDS011;53462;39.616;8.824;2022-07-22T12:34:47;4.03;;;2.42;;
66607;SDS011;53462;39.616;8.824;2022-07-22T12:40:04;4.63;;;2.10;;
66607;SDS011;53462;39.616;8.824;2022-07-22T12:42:36;3.30;;;2.20;;
66607;SDS011;53462;39.616;8.824;2022-07-22T12:45:14;4.35;;;2.67;;
66607;SDS011;53462;39.616;8.824;2022-07-22T12:47:49;3.45;;;2.30;;
66607;SDS011;53462;39.616;8.824;2022-07-22T12:53:06;5.38;;;2.08;;
66607;SDS011;53462;39.616;8.824;2022-07-22T12:55:35;3.33;;;2.13;;
66607;SDS011;53462;39.616;8.824;2022-07-22T12:58:03;4.72;;;2.30;;
66607;SDS011;53462;39.616;8.824;2022-07-22T13:00:31;2.55;;;1.90;;
66607;SDS011;53462;39.616;8.824;2022-07-22T13:02:58;5.18;;;2.58;;
66607;SDS011;53462;39.616;8.824;2022-07-22T13:05:25;6.55;;;2.70;;
66607;SDS011;53462;39.616;8.824;2022-07-22T13:07:52;5.00;;;2.40;;
66607;SDS011;53462;39.616;8.824;2022-07-22T13:10:19;3.88;;;2.15;;
66607;SDS011;53462;39.616;8.824;2022-07-22T13:12:47;6.25;;;2.20;;
66607;SDS011;53462;39.616;8.824;2022-07-22T13:15:13;5.10;;;2.10;;
66607;SDS011;53462;39.616;8.824;2022-07-22T13:17:39;3.75;;;2.10;;
66607;SDS011;53462;39.616;8.824;2022-07-22T13:20:06;7.55;;;2.25;;
66607;SDS011;53462;39.616;8.824;2022-07-22T13:22:34;4.05;;;1.98;;
66607;SDS011;53462;39.616;8.824;2022-07-22T13:25:00;2.88;;;1.90;;
66607;SDS011;53462;39.616;8.824;2022-07-22T13:27:26;4.88;;;2.13;;
66607;SDS011;53462;39.616;8.824;2022-07-22T13:29:52;6.05;;;2.00;;
66607;SDS011;53462;39.616;8.824;2022-07-22T13:32:18;4.07;;;2.10;;
66607;SDS011;53462;39.616;8.824;2022-07-22T13:34:44;4.57;;;2.20;;
66607;SDS011;53462;39.616;8.824;2022-07-22T13:37:10;5.03;;;2.20;;
66607;SDS011;53462;39.616;8.824;2022-07-22T13:39:36;4.60;;;2.00;;
66607;SDS011;53462;39.616;8.824;2022-07-22T13:42:02;5.07;;;2.45;;
66607;SDS011;53462;39.616;8.824;2022-07-22T13:44:28;4.97;;;2.42;;
66607;SDS011;53462;39.616;8.824;2022-07-22T13:46:58;3.25;;;1.95;;
66607;SDS011;53462;39.616;8.824;2022-07-22T13:49:24;4.85;;;2.40;;
66607;SDS011;53462;39.616;8.824;2022-07-22T13:51:51;3.85;;;2.28;;
66607;SDS011;53462;39.616;8.824;2022-07-22T13:54:17;2.85;;;2.28;;
66607;SDS011;53462;39.616;8.824;2022-07-22T13:56:44;5.50;;;2.92;;
66607;SDS011;53462;39.616;8.824;2022-07-22T13:59:15;4.68;;;2.58;;
66607;SDS011;53462;39.616;8.824;2022-07-22T14:01:42;3.13;;;2.13;;
66607;SDS011;53462;39.616;8.824;2022-07-22T14:04:08;3.72;;;2.35;;
66607;SDS011;53462;39.616;8.824;2022-07-22T14:06:34;8.10;;;2.63;;
66607;SDS011;53462;39.616;8.824;2022-07-22T14:09:00;7.30;;;3.40;;
66607;SDS011;53462;39.616;8.824;2022-07-22T14:11:28;4.28;;;3.10;;
66607;SDS011;53462;39.616;8.824;2022-07-22T14:13:54;3.53;;;2.47;;
66607;SDS011;53462;39.616;8.824;2022-07-22T14:16:20;4.20;;;2.30;;
66607;SDS011;53462;39.616;8.824;2022-07-22T14:19:03;3.40;;;2.67;;
66607;SDS011;53462;39.616;8.824;2022-07-22T14:21:35;4.40;;;2.63;;
66607;SDS011;53462;39.616;8.824;2022-07-22T14:24:03;5.60;;;2.50;;
66607;SDS011;53462;39.616;8.824;2022-07-22T14:26:31;2.47;;;2.08;;
66607;SDS011;53462;39.616;8.824;2022-07-22T14:28:57;4.88;;;2.60;;
66607;SDS011;53462;39.616;8.824;2022-07-22T14:31:23;4.57;;;3.05;;
66607;SDS011;53462;39.616;8.824;2022-07-22T14:33:49;8.00;;;2.80;;
66607;SDS011;53462;39.616;8.824;2022-07-22T14:36:15;3.95;;;2.63;;
66607;SDS011;53462;39.616;8.824;2022-07-22T14:38:41;4.93;;;2.40;;
66607;SDS011;53462;39.616;8.824;2022-07-22T14:41:07;3.45;;;2.60;;
66607;SDS011;53462;39.616;8.824;2022-07-22T14:43:34;4.30;;;2.60;;
66607;SDS011;53462;39.616;8.824;2022-07-22T14:46:01;5.20;;;2.80;;
66607;SDS011;53462;39.616;8.824;2022-07-22T14:48:29;3.95;;;2.50;;
66607;SDS011;53462;39.616;8.824;2022-07-22T14:50:56;4.68;;;2.30;;
66607;SDS011;53462;39.616;8.824;2022-07-22T14:53:23;4.75;;;2.30;;
66607;SDS011;53462;39.616;8.824;2022-07-22T14:55:49;3.70;;;2.65;;
66607;SDS011;53462;39.616;8.824;2022-07-22T14:58:15;5.13;;;2.40;;
66607;SDS011;53462;39.616;8.824;2022-07-22T15:00:41;4.82;;;2.33;;
66607;SDS011;53462;39.616;8.824;2022-07-22T15:03:07;5.22;;;2.42;;
66607;SDS011;53462;39.616;8.824;2022-07-22T15:05:33;6.13;;;2.50;;
66607;SDS011;53462;39.616;8.824;2022-07-22T15:07:59;4.55;;;3.15;;
66607;SDS011;53462;39.616;8.824;2022-07-22T15:10:25;4.95;;;2.70;;